createdAt,value
2019-02-25T00:01:28.294Z,7.65
2019-02-25T00:03:57.962Z,8.78
2019-02-25T00:06:27.907Z,11.53
2019-02-25T00:08:58.642Z,4.47
2019-02-25T00:11:28.858Z,9.80
2019-02-25T00:13:59.011Z,7.87
2019-02-25T00:16:29.314Z,12.18
2019-02-25T00:19:00.398Z,11.48
2019-02-25T00:21:35.289Z,6.15
2019-02-25T00:24:05.504Z,9.45
2019-02-25T00:26:39.790Z,10.03
2019-02-25T00:29:09.951Z,9.95
2019-02-25T00:31:40.186Z,8.45
2019-02-25T00:34:13.582Z,11.88
2019-02-25T00:36:44.103Z,12.20
2019-02-25T00:39:15.815Z,8.23
2019-02-25T00:41:45.530Z,3.45
2019-02-25T00:44:15.649Z,12.03
2019-02-25T00:46:49.858Z,10.48
2019-02-25T00:49:22.718Z,7.12
2019-02-25T00:51:53.473Z,8.63
2019-02-25T00:54:23.912Z,10.03
2019-02-25T00:56:54.232Z,9.00
2019-02-25T00:59:24.279Z,4.53
2019-02-25T01:01:54.497Z,3.33
2019-02-25T01:04:24.600Z,11.08
2019-02-25T01:06:55.313Z,10.78
2019-02-25T01:09:25.263Z,7.35
2019-02-25T01:11:55.188Z,11.50
2019-02-25T01:14:25.381Z,10.25
2019-02-25T01:16:55.635Z,10.72
2019-02-25T01:19:26.568Z,10.53
2019-02-25T01:21:56.793Z,6.85
2019-02-25T01:24:26.893Z,8.68
2019-02-25T01:26:57.134Z,8.53
2019-02-25T01:29:27.458Z,6.97
2019-02-25T01:31:57.742Z,9.43
2019-02-25T01:34:27.703Z,8.98
2019-02-25T01:36:57.828Z,9.95
2019-02-25T01:39:27.849Z,9.93
2019-02-25T01:41:58.049Z,4.00
2019-02-25T01:44:28.121Z,8.98
2019-02-25T01:46:57.964Z,5.92
2019-02-25T01:49:28.077Z,10.35
2019-02-25T01:51:58.835Z,10.70
2019-02-25T01:54:29.073Z,8.35
2019-02-25T01:56:59.249Z,5.22
2019-02-25T01:59:29.305Z,2.45
2019-02-25T02:01:59.604Z,9.20
2019-02-25T02:04:30.365Z,8.30
2019-02-25T02:07:00.459Z,7.40
2019-02-25T02:09:30.660Z,6.30
2019-02-25T02:12:00.736Z,9.45
2019-02-25T02:14:30.784Z,9.18
2019-02-25T02:17:01.077Z,7.87
2019-02-25T02:19:31.137Z,9.35
2019-02-25T02:22:01.370Z,8.93
2019-02-25T02:24:31.573Z,8.23
2019-02-25T02:27:01.776Z,7.75
2019-02-25T02:29:31.848Z,7.37
2019-02-25T02:32:02.611Z,10.13
2019-02-25T02:34:32.883Z,8.28
2019-02-25T02:37:02.941Z,8.78
2019-02-25T02:39:33.201Z,8.23
2019-02-25T02:42:31.569Z,5.55
2019-02-25T02:45:25.702Z,5.25
2019-02-25T02:48:01.517Z,6.95
2019-02-25T02:50:31.991Z,7.65
2019-02-25T02:53:02.031Z,5.67
2019-02-25T02:55:32.296Z,5.72
2019-02-25T02:58:02.532Z,9.15
2019-02-25T03:00:33.116Z,8.05
2019-02-25T03:03:04.037Z,7.55
2019-02-25T03:05:34.385Z,8.95
2019-02-25T03:08:05.193Z,7.25
2019-02-25T03:10:35.262Z,9.30
2019-02-25T03:13:06.010Z,8.28
2019-02-25T03:15:35.999Z,8.30
2019-02-25T03:18:06.099Z,3.72
2019-02-25T03:20:36.472Z,8.28
2019-02-25T03:23:06.581Z,9.13
2019-02-25T03:25:37.079Z,6.85
2019-02-25T03:28:07.278Z,5.78
2019-02-25T03:30:37.340Z,10.60
2019-02-25T03:33:07.780Z,7.22
2019-02-25T03:35:37.820Z,5.00
2019-02-25T03:38:08.084Z,6.35
2019-02-25T03:40:38.035Z,7.70
2019-02-25T03:43:08.420Z,8.80
2019-02-25T03:45:38.537Z,6.37
2019-02-25T03:48:09.446Z,6.90
2019-02-25T03:50:39.392Z,5.90
2019-02-25T03:53:09.627Z,4.17
2019-02-25T03:55:39.943Z,5.12
2019-02-25T03:58:10.165Z,8.28
2019-02-25T04:00:40.295Z,6.53
2019-02-25T04:03:10.446Z,6.22
2019-02-25T04:05:40.639Z,6.62
2019-02-25T04:08:10.931Z,6.60
2019-02-25T04:10:41.063Z,5.78
2019-02-25T04:13:11.324Z,6.05
2019-02-25T04:15:43.695Z,12.93
2019-02-25T04:18:13.981Z,6.47
2019-02-25T04:20:44.162Z,5.12
2019-02-25T04:23:14.399Z,3.70
2019-02-25T04:25:44.805Z,5.95
2019-02-25T04:28:15.227Z,5.53
2019-02-25T04:30:45.319Z,5.70
2019-02-25T04:33:15.602Z,3.95
2019-02-25T04:35:45.855Z,6.40
2019-02-25T04:38:16.082Z,6.65
2019-02-25T04:40:46.628Z,5.53
2019-02-25T04:43:16.990Z,4.22
2019-02-25T04:45:47.541Z,4.10
2019-02-25T04:48:17.912Z,4.03
2019-02-25T04:50:48.030Z,3.02
2019-02-25T04:53:18.377Z,4.70
2019-02-25T04:55:48.594Z,4.25
2019-02-25T04:58:19.013Z,4.10
2019-02-25T05:00:49.806Z,4.50
2019-02-25T05:03:20.344Z,3.37
2019-02-25T05:05:50.400Z,2.20
2019-02-25T05:08:20.651Z,3.27
2019-02-25T05:10:51.537Z,3.33
2019-02-25T05:13:23.727Z,2.75
2019-02-25T05:15:54.384Z,2.83
2019-02-25T05:18:24.541Z,2.85
2019-02-25T05:20:54.910Z,2.12
2019-02-25T05:23:25.143Z,3.55
2019-02-25T05:25:56.030Z,2.60
2019-02-25T05:28:27.028Z,2.55
2019-02-25T05:30:57.473Z,2.02
2019-02-25T05:33:31.183Z,1.98
2019-02-25T05:36:01.719Z,1.60
2019-02-25T05:38:32.465Z,2.20
2019-02-25T05:41:02.577Z,1.72
2019-02-25T05:43:33.158Z,2.10
2019-02-25T05:46:03.509Z,2.67
2019-02-25T05:48:33.635Z,3.83
2019-02-25T05:51:04.253Z,2.58
2019-02-25T05:53:34.462Z,2.30
2019-02-25T05:56:05.035Z,2.15
2019-02-25T05:58:35.347Z,2.17
2019-02-25T06:01:05.682Z,2.58
2019-02-25T06:03:36.393Z,2.05
2019-02-25T06:06:06.622Z,1.20
2019-02-25T06:08:37.282Z,2.20
2019-02-25T06:11:07.383Z,3.67
2019-02-25T06:13:37.605Z,1.85
2019-02-25T06:16:07.703Z,2.25
2019-02-25T06:18:37.824Z,3.50
2019-02-25T06:21:08.118Z,4.10
2019-02-25T06:23:38.562Z,3.67
2019-02-25T06:26:08.812Z,3.47
2019-02-25T06:28:38.957Z,3.35
2019-02-25T06:31:09.227Z,3.02
2019-02-25T06:33:39.885Z,3.15
2019-02-25T06:36:10.057Z,3.12
2019-02-25T06:38:40.023Z,3.05
2019-02-25T06:41:09.980Z,2.25
2019-02-25T06:43:40.508Z,4.05
2019-02-25T06:46:11.271Z,1.98
2019-02-25T06:48:41.279Z,3.77
2019-02-25T06:51:11.908Z,2.45
2019-02-25T06:53:42.216Z,2.40
2019-02-25T06:56:12.766Z,2.00
2019-02-25T06:58:42.795Z,1.42
2019-02-25T07:01:13.110Z,1.82
2019-02-25T07:03:45.186Z,2.77
2019-02-25T07:06:22.990Z,3.37
2019-02-25T07:09:25.491Z,2.62
2019-02-25T07:12:12.119Z,2.67
2019-02-25T07:14:51.195Z,2.90
2019-02-25T07:17:50.016Z,2.33
2019-02-25T07:20:28.907Z,1.65
2019-02-25T07:23:18.896Z,3.20
2019-02-25T07:26:07.433Z,3.40
2019-02-25T07:28:59.908Z,2.27
2019-02-25T07:31:56.127Z,2.70
2019-02-25T07:35:01.105Z,2.60
2019-02-25T07:37:55.112Z,1.72
2019-02-25T07:40:43.083Z,3.20
2019-02-25T07:43:33.836Z,3.08
2019-02-25T07:46:29.119Z,2.95
2019-02-25T07:49:09.300Z,5.20
2019-02-25T07:51:59.563Z,3.75
2019-02-25T07:54:47.313Z,2.90
2019-02-25T08:00:14.177Z,3.58
2019-02-25T08:02:59.370Z,4.00
2019-02-25T08:06:01.612Z,3.05
2019-02-25T08:08:42.749Z,3.83
2019-02-25T08:11:30.975Z,4.67
2019-02-25T08:14:15.526Z,3.12
2019-02-25T08:17:14.020Z,3.50
2019-02-25T08:19:56.998Z,2.90
2019-02-25T08:22:44.956Z,3.80
2019-02-25T08:25:36.447Z,3.08
2019-02-25T08:28:25.001Z,4.10
2019-02-25T08:31:24.977Z,3.55
2019-02-25T08:34:18.758Z,3.12
2019-02-25T08:38:05.882Z,3.22
2019-02-25T08:41:18.287Z,3.75
2019-02-25T08:44:07.379Z,3.70
2019-02-25T08:47:09.417Z,3.87
2019-02-25T08:49:44.140Z,3.60
2019-02-25T08:52:14.536Z,4.50
2019-02-25T08:54:45.079Z,3.65
2019-02-25T08:57:15.558Z,4.85
2019-02-25T08:59:46.916Z,2.37
2019-02-25T09:02:17.381Z,2.70
2019-02-25T09:04:49.232Z,1.65
2019-02-25T09:07:19.854Z,3.60
2019-02-25T09:09:50.704Z,3.87
2019-02-25T09:12:20.889Z,2.62
2019-02-25T09:14:51.149Z,4.33
2019-02-25T09:17:22.110Z,3.17
2019-02-25T09:19:52.307Z,3.33
2019-02-25T09:22:22.519Z,3.00
2019-02-25T09:24:52.905Z,3.25
2019-02-25T09:27:23.005Z,2.70
2019-02-25T09:29:53.365Z,4.00
2019-02-25T09:32:23.896Z,4.60
2019-02-25T09:34:54.054Z,3.75
2019-02-25T09:37:24.309Z,3.22
2019-02-25T09:39:54.496Z,2.35
2019-02-25T09:42:24.723Z,2.50
2019-02-25T09:44:54.930Z,3.58
2019-02-25T09:47:25.156Z,1.00
2019-02-25T09:49:55.430Z,3.52
2019-02-25T09:52:25.539Z,3.72
2019-02-25T09:54:55.696Z,3.60
2019-02-25T09:57:26.267Z,2.65
2019-02-25T09:59:56.778Z,3.40
2019-02-25T10:02:27.094Z,3.08
2019-02-25T10:04:57.509Z,1.75
2019-02-25T10:07:27.670Z,2.95
2019-02-25T10:09:57.966Z,3.10
2019-02-25T10:12:28.520Z,1.50
2019-02-25T10:14:59.095Z,3.77
2019-02-25T10:17:30.066Z,3.02
2019-02-25T10:20:00.458Z,2.00
2019-02-25T10:22:32.739Z,4.15
2019-02-25T10:25:03.212Z,3.47
2019-02-25T10:27:33.401Z,3.25
2019-02-25T10:30:04.832Z,1.98
2019-02-25T10:32:35.084Z,3.70
2019-02-25T10:35:06.957Z,3.52
2019-02-25T10:37:38.658Z,3.40
2019-02-25T10:40:10.410Z,2.98
2019-02-25T10:42:40.679Z,4.20
2019-02-25T10:45:13.629Z,3.02
2019-02-25T10:47:44.334Z,4.53
2019-02-25T10:50:16.383Z,2.83
2019-02-25T10:52:49.530Z,2.27
2019-02-25T10:55:32.364Z,2.30
2019-02-25T10:58:03.798Z,3.55
2019-02-25T11:00:35.290Z,2.85
2019-02-25T11:03:06.901Z,3.12
2019-02-25T11:05:37.436Z,3.05
2019-02-25T11:08:12.037Z,1.62
2019-02-25T11:10:50.857Z,1.75
2019-02-25T11:13:22.617Z,2.70
2019-02-25T11:15:52.904Z,2.30
2019-02-25T11:18:24.551Z,2.95
2019-02-25T11:20:55.721Z,3.25
2019-02-25T11:23:26.063Z,2.55
2019-02-25T11:25:57.906Z,3.25
2019-02-25T11:28:28.657Z,3.22
2019-02-25T11:30:58.655Z,2.25
2019-02-25T11:33:30.271Z,3.00
2019-02-25T11:36:01.370Z,3.50
2019-02-25T11:38:35.468Z,2.92
2019-02-25T11:41:04.801Z,2.62
2019-02-25T11:43:35.940Z,2.72
2019-02-25T11:46:06.123Z,2.62
2019-02-25T11:48:36.345Z,5.22
2019-02-25T11:51:07.361Z,2.62
2019-02-25T11:53:37.921Z,2.40
2019-02-25T11:56:07.891Z,2.10
2019-02-25T11:58:38.315Z,3.10
2019-02-25T12:01:08.728Z,2.47
2019-02-25T12:03:39.257Z,3.10
2019-02-25T12:06:09.579Z,3.85
2019-02-25T12:08:40.633Z,2.80
2019-02-25T12:11:10.827Z,2.77
2019-02-25T12:13:41.000Z,3.85
2019-02-25T12:16:11.378Z,3.33
2019-02-25T12:18:41.557Z,4.40
2019-02-25T12:21:11.582Z,3.98
2019-02-25T12:23:41.824Z,3.90
2019-02-25T12:26:12.479Z,2.77
2019-02-25T12:28:42.717Z,3.20
2019-02-25T12:31:13.231Z,2.65
2019-02-25T12:33:44.180Z,3.58
2019-02-25T12:36:14.750Z,2.60
2019-02-25T12:38:45.223Z,3.22
2019-02-25T12:41:16.121Z,3.55
2019-02-25T12:43:46.288Z,3.65
2019-02-25T12:46:16.362Z,4.17
2019-02-25T12:48:46.753Z,5.22
2019-02-25T12:51:16.996Z,3.37
2019-02-25T12:53:48.163Z,3.27
2019-02-25T12:56:18.558Z,3.45
2019-02-25T12:58:52.237Z,1.50
2019-02-25T13:01:23.328Z,4.10
2019-02-25T13:03:53.929Z,3.37
2019-02-25T13:06:24.322Z,3.60
2019-02-25T13:08:55.119Z,4.60
2019-02-25T13:11:25.574Z,2.67
2019-02-25T13:13:56.086Z,2.98
2019-02-25T13:16:26.527Z,5.08
2019-02-25T13:18:57.021Z,5.25
2019-02-25T13:21:28.137Z,4.08
2019-02-25T13:23:59.441Z,3.27
2019-02-25T13:26:32.251Z,4.08
2019-02-25T13:29:04.416Z,3.77
2019-02-25T13:31:35.660Z,2.75
2019-02-25T13:34:06.267Z,3.72
2019-02-25T13:36:37.173Z,3.85
2019-02-25T13:39:08.502Z,2.85
2019-02-25T13:41:39.512Z,2.90
2019-02-25T13:44:09.868Z,3.20
2019-02-25T13:46:40.539Z,3.87
2019-02-25T13:49:11.774Z,3.52
2019-02-25T13:51:41.824Z,3.12
2019-02-25T13:54:12.664Z,3.83
2019-02-25T13:56:43.256Z,2.45
2019-02-25T13:59:13.886Z,2.98
2019-02-25T14:01:44.592Z,3.55
2019-02-25T14:04:15.199Z,3.27
2019-02-25T14:06:45.660Z,2.95
2019-02-25T14:09:16.387Z,2.85
2019-02-25T14:11:48.767Z,3.20
2019-02-25T14:14:20.752Z,1.42
2019-02-25T14:16:51.811Z,3.92
2019-02-25T14:19:22.186Z,2.70
2019-02-25T14:21:52.611Z,3.02
2019-02-25T14:24:23.433Z,3.00
2019-02-25T14:26:54.619Z,2.80
2019-02-25T14:29:26.437Z,2.92
2019-02-25T14:31:57.203Z,3.67
2019-02-25T14:34:27.825Z,3.33
2019-02-25T14:36:59.716Z,2.00
2019-02-25T14:39:32.727Z,1.57
2019-02-25T14:42:04.395Z,3.20
2019-02-25T14:44:37.631Z,2.80
2019-02-25T14:47:19.538Z,2.80
2019-02-25T14:49:41.066Z,3.60
2019-02-25T14:52:12.314Z,3.70
2019-02-25T14:54:42.685Z,3.05
2019-02-25T14:57:13.394Z,3.62
2019-02-25T14:59:45.430Z,3.30
2019-02-25T15:02:16.414Z,4.65
2019-02-25T15:04:46.703Z,2.52
2019-02-25T15:07:17.017Z,3.22
2019-02-25T15:09:48.134Z,2.30
2019-02-25T15:12:20.622Z,2.98
2019-02-25T15:14:51.189Z,3.10
2019-02-25T15:17:21.711Z,2.60
2019-02-25T15:19:52.267Z,2.80
2019-02-25T15:22:23.170Z,4.65
2019-02-25T15:24:54.642Z,2.67
2019-02-25T15:27:25.835Z,4.00
2019-02-25T15:29:56.359Z,3.62
2019-02-25T15:32:26.913Z,2.37
2019-02-25T15:34:57.340Z,3.40
2019-02-25T15:37:27.884Z,3.27
2019-02-25T15:39:57.844Z,1.95
2019-02-25T15:42:29.771Z,4.85
2019-02-25T15:45:00.429Z,3.60
2019-02-25T15:47:31.457Z,4.75
2019-02-25T15:50:03.985Z,3.52
2019-02-25T15:52:39.990Z,3.50
2019-02-25T15:55:08.577Z,4.17
2019-02-25T15:57:40.097Z,3.75
2019-02-25T16:00:13.969Z,4.08
2019-02-25T16:02:44.568Z,3.40
2019-02-25T16:05:15.269Z,4.08
2019-02-25T16:07:45.806Z,4.75
2019-02-25T16:10:16.584Z,3.20
2019-02-25T16:12:47.474Z,3.72
2019-02-25T16:15:18.151Z,2.20
2019-02-25T16:17:49.606Z,3.27
2019-02-25T16:20:21.168Z,2.37
2019-02-25T16:22:51.962Z,2.80
2019-02-25T16:25:23.063Z,1.92
2019-02-25T16:27:55.514Z,2.80
2019-02-25T16:30:28.854Z,2.12
2019-02-25T16:33:04.314Z,3.17
2019-02-25T16:35:34.851Z,3.42
2019-02-25T16:38:07.318Z,4.80
2019-02-25T16:40:40.078Z,3.08
2019-02-25T16:43:12.755Z,3.08
2019-02-25T16:45:45.295Z,4.33
2019-02-25T16:48:17.236Z,2.75
2019-02-25T16:50:47.993Z,3.55
2019-02-25T16:53:20.219Z,2.15
2019-02-25T16:55:51.553Z,2.55
2019-02-25T16:58:21.995Z,2.72
2019-02-25T17:00:55.992Z,3.00
2019-02-25T17:03:25.048Z,2.40
2019-02-25T17:05:55.455Z,1.92
2019-02-25T17:08:28.200Z,3.17
2019-02-25T17:11:00.019Z,4.47
2019-02-25T17:13:33.040Z,4.90
2019-02-25T17:16:04.018Z,3.55
2019-02-25T17:18:34.730Z,2.62
2019-02-25T17:21:07.675Z,2.60
2019-02-25T17:23:41.419Z,3.90
2019-02-25T17:26:17.217Z,3.22
2019-02-25T17:28:47.499Z,2.50
2019-02-25T17:31:26.207Z,4.37
2019-02-25T17:33:57.911Z,2.37
2019-02-25T17:36:36.496Z,2.67
2019-02-25T17:39:08.756Z,1.72
2019-02-25T17:41:40.412Z,2.47
2019-02-25T17:44:11.861Z,3.20
2019-02-25T17:46:43.450Z,3.60
2019-02-25T17:49:14.507Z,2.75
2019-02-25T17:51:45.504Z,2.35
2019-02-25T17:54:16.854Z,2.95
2019-02-25T17:56:47.966Z,3.92
2019-02-25T17:59:21.360Z,2.72
2019-02-25T18:02:12.966Z,2.37
2019-02-25T18:04:43.086Z,2.80
2019-02-25T18:07:13.310Z,2.60
2019-02-25T18:09:48.310Z,2.92
2019-02-25T18:12:19.084Z,1.37
2019-02-25T18:14:49.494Z,2.30
2019-02-25T18:17:21.629Z,3.50
2019-02-25T18:19:52.426Z,3.92
2019-02-25T18:22:23.991Z,2.67
2019-02-25T18:24:54.222Z,3.30
2019-02-25T18:27:25.087Z,2.42
2019-02-25T18:29:57.029Z,3.47
2019-02-25T18:32:30.334Z,2.33
2019-02-25T18:35:00.600Z,1.42
2019-02-25T18:37:31.702Z,2.62
2019-02-25T18:40:01.751Z,3.40
2019-02-25T18:42:34.254Z,1.37
2019-02-25T18:45:05.070Z,1.90
2019-02-25T18:47:35.750Z,2.80
2019-02-25T18:50:07.765Z,4.62
2019-02-25T18:52:38.557Z,3.25
2019-02-25T18:55:12.031Z,2.45
2019-02-25T18:57:43.895Z,3.42
2019-02-25T19:00:22.212Z,4.60
2019-02-25T19:02:54.049Z,3.42
2019-02-25T19:05:27.219Z,3.85
2019-02-25T19:07:57.758Z,4.30
2019-02-25T19:10:27.901Z,3.12
2019-02-25T19:12:59.128Z,2.55
2019-02-25T19:15:30.489Z,3.40
2019-02-25T19:18:00.661Z,2.92
2019-02-25T19:20:31.076Z,4.10
2019-02-25T19:23:02.781Z,4.53
2019-02-25T19:25:33.229Z,4.72
2019-02-25T19:28:03.571Z,3.72
2019-02-25T19:30:34.506Z,2.80
2019-02-25T19:33:10.867Z,2.77
2019-02-25T19:35:39.015Z,3.27
2019-02-25T19:38:10.369Z,6.60
2019-02-25T19:40:43.065Z,4.80
2019-02-25T19:43:13.350Z,3.42
2019-02-25T19:45:45.472Z,1.32
2019-02-25T19:48:15.904Z,4.12
2019-02-25T19:50:51.215Z,4.53
2019-02-25T19:53:20.277Z,4.17
2019-02-25T19:55:53.677Z,3.17
2019-02-25T19:58:24.478Z,3.80
2019-02-25T20:01:00.773Z,3.12
2019-02-25T20:03:28.943Z,5.05
2019-02-25T20:06:00.605Z,3.22
2019-02-25T20:08:31.059Z,4.80
2019-02-25T20:11:01.276Z,4.47
2019-02-25T20:13:31.610Z,3.02
2019-02-25T20:16:07.949Z,5.08
2019-02-25T20:18:35.427Z,4.45
2019-02-25T20:21:06.454Z,3.30
2019-02-25T20:23:37.247Z,4.80
2019-02-25T20:26:09.458Z,5.05
2019-02-25T20:28:41.155Z,3.40
2019-02-25T20:31:12.731Z,3.83
2019-02-25T20:33:43.408Z,2.58
2019-02-25T20:36:17.203Z,1.92
2019-02-25T20:38:45.545Z,3.20
2019-02-25T20:41:18.010Z,3.85
2019-02-25T20:43:53.227Z,4.87
2019-02-25T20:46:23.925Z,4.60
2019-02-25T20:48:53.148Z,1.82
2019-02-25T20:51:25.056Z,4.42
2019-02-25T20:53:57.168Z,5.83
2019-02-25T20:56:28.863Z,5.25
2019-02-25T20:59:01.053Z,3.83
2019-02-25T21:01:35.238Z,5.37
2019-02-25T21:04:03.457Z,4.37
2019-02-25T21:06:35.312Z,4.65
2019-02-25T21:09:06.670Z,2.90
2019-02-25T21:11:37.908Z,5.22
2019-02-25T21:14:07.922Z,4.10
2019-02-25T21:16:38.057Z,4.50
2019-02-25T21:19:10.252Z,5.65
2019-02-25T21:21:40.024Z,2.90
2019-02-25T21:24:11.872Z,4.75
2019-02-25T21:26:42.366Z,5.30
2019-02-25T21:29:12.710Z,6.35
2019-02-25T21:31:45.319Z,6.22
2019-02-25T21:34:17.752Z,4.55
2019-02-25T21:36:46.592Z,3.95
2019-02-25T21:39:17.474Z,4.65
2019-02-25T21:41:48.684Z,5.28
2019-02-25T21:44:21.273Z,5.50
2019-02-25T21:46:53.789Z,5.30
2019-02-25T21:49:26.982Z,3.52
2019-02-25T21:51:55.197Z,4.10
2019-02-25T21:54:25.190Z,4.50
2019-02-25T21:56:55.232Z,4.90
2019-02-25T21:59:25.276Z,4.00
2019-02-25T22:01:57.386Z,4.83
2019-02-25T22:04:27.887Z,4.42
2019-02-25T22:06:58.524Z,3.90
2019-02-25T22:09:36.431Z,4.10
2019-02-25T22:12:02.035Z,4.97
2019-02-25T22:14:32.060Z,4.37
2019-02-25T22:17:02.373Z,7.53
2019-02-25T22:19:35.031Z,6.03
2019-02-25T22:22:04.939Z,4.35
2019-02-25T22:24:38.192Z,5.72
2019-02-25T22:27:08.247Z,4.20
2019-02-25T22:29:38.634Z,3.92
2019-02-25T22:32:10.977Z,3.87
2019-02-25T22:34:41.191Z,4.47
2019-02-25T22:37:14.769Z,3.37
2019-02-25T22:39:43.940Z,1.98
2019-02-25T22:42:14.413Z,5.30
2019-02-25T22:44:45.205Z,4.00
2019-02-25T22:47:18.256Z,4.62
2019-02-25T22:49:48.726Z,3.90
2019-02-25T22:52:21.837Z,5.03
2019-02-25T22:54:52.216Z,3.27
2019-02-25T22:57:25.221Z,3.42
2019-02-25T22:59:55.376Z,4.03
2019-02-25T23:02:28.066Z,3.15
2019-02-25T23:04:58.128Z,4.30
2019-02-25T23:07:28.536Z,2.52
2019-02-25T23:09:58.774Z,3.42
2019-02-25T23:12:31.023Z,3.80
2019-02-25T23:15:03.861Z,2.20
2019-02-25T23:17:37.117Z,2.77
2019-02-25T23:20:07.730Z,4.05
2019-02-25T23:22:39.138Z,3.90
2019-02-25T23:25:09.561Z,3.17
2019-02-25T23:27:39.845Z,2.80
2019-02-25T23:30:10.092Z,2.45
2019-02-25T23:32:40.238Z,3.30
2019-02-25T23:35:13.622Z,2.52
2019-02-25T23:37:45.113Z,2.62
2019-02-25T23:40:16.801Z,3.25
2019-02-25T23:42:49.130Z,2.90
2019-02-25T23:45:21.081Z,2.45
2019-02-25T23:47:55.339Z,1.30
2019-02-25T23:50:25.685Z,2.72
2019-02-25T23:52:55.856Z,3.55
2019-02-25T23:55:27.777Z,1.82
2019-02-25T23:57:57.908Z,2.10
